createdAt,value
2022-09-28T00:01:35.880Z,90.58
2022-09-28T00:04:02.652Z,90.56
2022-09-28T00:06:30.349Z,90.28
2022-09-28T00:08:57.384Z,90.30
2022-09-28T00:11:24.432Z,90.30
2022-09-28T00:13:52.524Z,90.26
2022-09-28T00:16:20.914Z,90.37
2022-09-28T00:18:47.601Z,90.50
2022-09-28T00:21:16.073Z,90.52
2022-09-28T00:24:01.548Z,90.51
2022-09-28T00:26:28.950Z,90.44
2022-09-28T00:28:57.235Z,90.47
2022-09-28T00:31:25.198Z,90.49
2022-09-28T00:33:52.568Z,90.55
2022-09-28T00:36:19.398Z,90.33
2022-09-28T00:38:46.451Z,90.12
2022-09-28T00:41:13.444Z,90.21
2022-09-28T00:43:40.069Z,90.67
2022-09-28T00:46:12.437Z,90.75
2022-09-28T00:48:40.061Z,91.04
2022-09-28T00:51:09.162Z,91.28
2022-09-28T00:53:36.542Z,91.36
2022-09-28T00:56:07.530Z,91.69
2022-09-28T00:58:36.612Z,91.99
2022-09-28T01:01:03.293Z,92.31
2022-09-28T01:03:30.161Z,92.30
2022-09-28T01:05:58.504Z,92.53
2022-09-28T01:08:27.689Z,92.45
2022-09-28T01:10:54.541Z,92.39
2022-09-28T01:13:21.830Z,92.35
2022-09-28T01:15:59.795Z,92.24
2022-09-28T01:18:34.113Z,92.19
2022-09-28T01:21:05.087Z,92.12
2022-09-28T01:24:30.988Z,92.13
2022-09-28T01:27:20.558Z,92.15
2022-09-28T01:29:53.536Z,92.28
2022-09-28T01:32:52.440Z,92.36
2022-09-28T01:35:26.968Z,92.30
2022-09-28T01:38:07.400Z,92.29
2022-09-28T01:40:34.111Z,92.02
2022-09-28T01:43:09.822Z,92.09
2022-09-28T01:45:51.421Z,92.03
2022-09-28T01:48:21.501Z,91.83
2022-09-28T01:50:48.587Z,91.48
2022-09-28T01:53:27.322Z,91.72
2022-09-28T01:55:57.688Z,91.94
2022-09-28T01:58:27.701Z,92.31
2022-09-28T02:00:57.939Z,92.28
2022-09-28T02:03:26.953Z,92.35
2022-09-28T02:06:04.151Z,92.33
2022-09-28T02:08:41.428Z,92.17
2022-09-28T02:11:09.708Z,92.23
2022-09-28T02:13:41.749Z,92.10
2022-09-28T02:16:46.594Z,92.05
2022-09-28T02:19:20.636Z,92.42
2022-09-28T02:22:23.443Z,92.31
2022-09-28T02:25:01.374Z,92.20
2022-09-28T02:27:40.045Z,92.14
2022-09-28T02:30:07.425Z,92.13
2022-09-28T02:32:35.701Z,92.07
2022-09-28T02:35:02.594Z,92.15
2022-09-28T02:37:29.460Z,92.05
2022-09-28T02:39:56.132Z,91.74
2022-09-28T02:42:37.106Z,91.58
2022-09-28T02:45:37.562Z,91.61
2022-09-28T02:48:13.851Z,91.77
2022-09-28T02:50:52.253Z,92.08
2022-09-28T02:53:46.161Z,92.47
2022-09-28T02:56:35.164Z,92.75
2022-09-28T02:59:15.374Z,92.59
2022-09-28T03:02:01.596Z,92.52
2022-09-28T03:04:37.716Z,92.42
2022-09-28T03:07:11.741Z,92.23
2022-09-28T03:10:16.118Z,92.29
2022-09-28T03:12:44.393Z,92.58
2022-09-28T03:15:12.816Z,92.69
2022-09-28T03:17:39.791Z,92.77
2022-09-28T03:20:06.994Z,92.81
2022-09-28T03:22:34.481Z,92.76
2022-09-28T03:25:01.148Z,92.72
2022-09-28T03:27:27.933Z,92.62
2022-09-28T03:29:54.738Z,92.62
2022-09-28T03:32:22.089Z,92.47
2022-09-28T03:34:48.841Z,92.19
2022-09-28T03:37:15.570Z,92.12
2022-09-28T03:39:42.237Z,92.19
2022-09-28T03:42:08.977Z,91.84
2022-09-28T03:44:37.858Z,91.68
2022-09-28T03:47:04.579Z,91.60
2022-09-28T03:49:31.241Z,91.48
2022-09-28T03:51:57.940Z,91.53
2022-09-28T03:54:24.707Z,91.54
2022-09-28T03:56:52.029Z,91.51
2022-09-28T03:59:18.892Z,91.50
2022-09-28T04:01:45.736Z,91.29
2022-09-28T04:04:12.990Z,91.27
2022-09-28T04:06:39.832Z,91.14
2022-09-28T04:09:06.838Z,91.09
2022-09-28T04:11:43.040Z,91.02
2022-09-28T04:14:20.157Z,90.62
2022-09-28T04:16:48.538Z,90.28
2022-09-28T04:19:15.922Z,90.25
2022-09-28T04:21:51.052Z,90.05
2022-09-28T04:24:18.390Z,89.70
2022-09-28T04:26:45.120Z,89.14
2022-09-28T04:29:18.981Z,88.51
2022-09-28T04:32:05.978Z,87.99
2022-09-28T04:34:37.995Z,87.60
2022-09-28T04:37:07.428Z,87.22
2022-09-28T04:39:34.081Z,86.98
2022-09-28T04:42:01.217Z,86.78
2022-09-28T04:44:28.167Z,86.52
2022-09-28T04:47:04.196Z,86.18
2022-09-28T04:49:31.858Z,86.13
2022-09-28T04:52:05.621Z,86.16
2022-09-28T04:54:33.756Z,86.07
2022-09-28T04:57:00.391Z,85.75
2022-09-28T04:59:27.041Z,85.53
2022-09-28T05:01:54.207Z,85.20
2022-09-28T05:04:39.313Z,85.03
2022-09-28T05:07:27.069Z,84.74
2022-09-28T05:09:55.272Z,84.63
2022-09-28T05:12:22.034Z,84.92
2022-09-28T05:14:48.752Z,85.06
2022-09-28T05:17:15.561Z,85.59
2022-09-28T05:20:03.141Z,86.14
2022-09-28T05:22:29.874Z,86.18
2022-09-28T05:24:58.252Z,86.34
2022-09-28T05:27:24.946Z,86.25
2022-09-28T05:30:00.093Z,86.70
2022-09-28T05:32:45.072Z,86.99
2022-09-28T05:35:21.242Z,87.25
2022-09-28T05:37:48.514Z,87.59
2022-09-28T05:40:16.330Z,87.58
2022-09-28T05:42:46.489Z,87.39
2022-09-28T05:45:13.666Z,87.27
2022-09-28T05:47:42.941Z,87.24
2022-09-28T05:50:11.928Z,86.92
2022-09-28T05:52:39.142Z,86.53
2022-09-28T05:55:07.032Z,86.27
2022-09-28T05:57:34.300Z,85.90
2022-09-28T06:00:01.472Z,85.53
2022-09-28T06:02:28.237Z,85.27
2022-09-28T06:04:55.745Z,84.88
2022-09-28T06:07:23.419Z,84.87
2022-09-28T06:09:50.114Z,84.80
2022-09-28T06:12:20.249Z,84.51
2022-09-28T06:14:54.357Z,84.35
2022-09-28T06:17:23.550Z,83.73
2022-09-28T06:20:11.363Z,81.80
2022-09-28T06:22:55.858Z,81.60
2022-09-28T06:25:23.208Z,81.92
2022-09-28T06:28:06.399Z,81.62
2022-09-28T06:30:34.249Z,80.22
2022-09-28T06:33:01.587Z,79.04
2022-09-28T06:35:30.517Z,78.43
2022-09-28T06:37:58.263Z,77.59
2022-09-28T06:40:25.090Z,78.06
2022-09-28T06:42:56.670Z,77.75
2022-09-28T06:45:43.750Z,77.22
2022-09-28T06:48:23.432Z,76.39
2022-09-28T06:50:50.169Z,75.75
2022-09-28T06:53:28.498Z,74.72
2022-09-28T06:56:15.535Z,74.24
2022-09-28T06:58:42.224Z,74.33
2022-09-28T07:01:09.186Z,74.04
2022-09-28T07:03:43.461Z,73.57
2022-09-28T07:06:26.787Z,73.83
2022-09-28T07:09:30.773Z,74.06
2022-09-28T07:12:36.202Z,74.39
2022-09-28T07:15:12.223Z,74.51
2022-09-28T07:17:53.150Z,74.79
2022-09-28T07:20:25.365Z,75.28
2022-09-28T07:23:14.693Z,75.93
2022-09-28T07:26:22.979Z,77.37
2022-09-28T07:29:13.846Z,78.10
2022-09-28T07:32:06.437Z,78.02
2022-09-28T07:34:58.890Z,78.02
2022-09-28T07:37:44.553Z,78.53
2022-09-28T07:40:30.138Z,78.97
2022-09-28T07:43:03.501Z,79.29
2022-09-28T07:45:31.585Z,79.60
2022-09-28T07:47:58.344Z,79.81
2022-09-28T07:50:53.510Z,79.92
2022-09-28T07:53:31.599Z,79.71
2022-09-28T07:56:20.224Z,79.79
2022-09-28T07:59:07.791Z,80.42
2022-09-28T08:01:40.330Z,80.58
2022-09-28T08:04:09.529Z,81.36
2022-09-28T08:06:40.540Z,81.51
2022-09-28T08:09:08.368Z,80.76
2022-09-28T08:11:53.542Z,78.90
2022-09-28T08:14:34.430Z,77.67
2022-09-28T08:17:16.560Z,77.21
2022-09-28T08:20:04.819Z,76.04
2022-09-28T08:22:32.333Z,74.50
2022-09-28T08:24:59.897Z,74.27
2022-09-28T08:27:26.609Z,74.53
2022-09-28T08:29:53.740Z,74.08
2022-09-28T08:32:46.433Z,73.77
2022-09-28T08:35:31.613Z,73.36
2022-09-28T08:38:17.019Z,73.51
2022-09-28T08:41:07.988Z,73.85
2022-09-28T08:43:52.530Z,73.37
2022-09-28T08:46:58.575Z,72.15
2022-09-28T08:49:45.539Z,72.17
2022-09-28T08:52:37.968Z,72.46
2022-09-28T08:55:31.606Z,71.13
2022-09-28T08:58:02.723Z,70.03
2022-09-28T09:00:45.860Z,69.92
2022-09-28T09:03:14.882Z,69.73
2022-09-28T09:05:56.022Z,70.06
2022-09-28T09:08:57.427Z,70.22
2022-09-28T09:11:35.221Z,70.50
2022-09-28T09:14:13.512Z,70.16
2022-09-28T09:16:46.912Z,69.54
2022-09-28T09:19:48.704Z,69.30
2022-09-28T09:22:40.889Z,69.28
2022-09-28T09:25:15.297Z,69.75
2022-09-28T09:28:04.666Z,69.74
2022-09-28T09:30:40.565Z,68.66
2022-09-28T09:33:31.848Z,68.73
2022-09-28T09:36:28.654Z,69.03
2022-09-28T09:39:35.187Z,68.29
2022-09-28T09:42:20.780Z,67.51
2022-09-28T09:45:30.312Z,67.79
2022-09-28T09:48:44.298Z,67.95
2022-09-28T09:51:17.753Z,68.07
2022-09-28T09:54:00.218Z,67.42
2022-09-28T09:56:31.512Z,67.93
2022-09-28T09:59:12.852Z,68.04
2022-09-28T10:01:58.590Z,68.56
2022-09-28T10:04:39.806Z,68.72
2022-09-28T10:07:43.554Z,68.82
2022-09-28T10:10:13.162Z,69.48
2022-09-28T10:13:02.957Z,69.81
2022-09-28T10:15:31.466Z,69.44
2022-09-28T10:18:12.385Z,69.60
2022-09-28T10:20:57.796Z,69.80
2022-09-28T10:23:36.635Z,69.97
2022-09-28T10:26:07.651Z,69.88
2022-09-28T10:28:40.694Z,69.84
2022-09-28T10:31:42.882Z,70.21
2022-09-28T10:34:19.662Z,69.64
2022-09-28T10:36:49.513Z,70.14
2022-09-28T10:39:27.545Z,70.84
2022-09-28T10:41:54.690Z,71.34
2022-09-28T10:44:24.212Z,71.57
2022-09-28T10:48:45.870Z,71.39
2022-09-28T10:51:13.064Z,72.12
2022-09-28T10:53:40.430Z,72.48
2022-09-28T10:56:35.302Z,72.64
2022-09-28T10:59:31.168Z,73.06
2022-09-28T11:02:26.024Z,72.60
2022-09-28T11:04:57.525Z,71.98
2022-09-28T11:07:32.293Z,70.85
2022-09-28T11:09:59.953Z,70.18
2022-09-28T11:12:29.296Z,70.13
2022-09-28T11:14:58.627Z,69.49
2022-09-28T11:19:48.900Z,68.15
2022-09-28T11:22:24.851Z,67.27
2022-09-28T11:24:52.418Z,66.58
2022-09-28T11:27:22.034Z,66.42
2022-09-28T11:29:57.393Z,66.09
2022-09-28T11:32:47.186Z,66.13
2022-09-28T11:35:22.596Z,66.16
2022-09-28T11:38:21.679Z,66.17
2022-09-28T11:41:25.264Z,66.01
2022-09-28T11:43:52.479Z,66.22
2022-09-28T11:46:48.183Z,66.59
2022-09-28T11:49:58.974Z,66.81
2022-09-28T11:52:31.413Z,66.91
2022-09-28T11:55:21.356Z,66.65
2022-09-28T11:57:57.107Z,66.66
2022-09-28T12:00:23.944Z,66.70
2022-09-28T12:03:09.597Z,66.80
2022-09-28T12:05:43.109Z,67.16
2022-09-28T12:08:22.631Z,67.06
2022-09-28T12:11:11.809Z,66.93
2022-09-28T12:14:20.424Z,66.85
2022-09-28T12:17:11.813Z,66.87
2022-09-28T12:19:48.991Z,66.70
2022-09-28T12:22:23.081Z,66.91
2022-09-28T12:24:52.756Z,67.31
2022-09-28T12:27:41.644Z,67.83
2022-09-28T12:30:15.605Z,68.32
2022-09-28T12:33:23.991Z,68.54
2022-09-28T12:36:01.613Z,68.92
2022-09-28T12:38:54.087Z,68.95
2022-09-28T12:41:40.408Z,68.59
2022-09-28T12:44:14.229Z,68.47
2022-09-28T12:47:05.539Z,68.20
2022-09-28T12:50:37.541Z,68.07
2022-09-28T12:53:00.667Z,68.01
2022-09-28T12:56:06.291Z,67.74
2022-09-28T12:58:51.394Z,67.58
2022-09-28T13:01:57.140Z,67.73
2022-09-28T13:05:03.919Z,67.92
2022-09-28T13:08:00.823Z,67.69
2022-09-28T13:10:32.614Z,67.56
2022-09-28T13:13:05.297Z,67.24
2022-09-28T13:15:49.321Z,67.83
2022-09-28T13:18:16.021Z,68.41
2022-09-28T13:21:00.964Z,68.69
2022-09-28T13:23:29.892Z,69.79
2022-09-28T13:26:03.315Z,70.35
2022-09-28T13:28:30.284Z,70.72
2022-09-28T13:33:36.729Z,70.57
2022-09-28T13:36:06.262Z,70.91
2022-09-28T13:38:47.381Z,71.14
2022-09-28T13:41:14.493Z,70.82
2022-09-28T13:43:50.244Z,71.06
2022-09-28T13:46:42.012Z,71.57
2022-09-28T13:49:11.833Z,72.17
2022-09-28T13:51:49.773Z,72.03
2022-09-28T13:54:22.880Z,72.02
2022-09-28T13:57:13.763Z,71.97
2022-09-28T13:59:49.720Z,71.61
2022-09-28T14:02:45.741Z,71.43
2022-09-28T14:05:48.148Z,71.62
2022-09-28T14:08:30.992Z,72.46
2022-09-28T14:11:18.088Z,73.19
2022-09-28T14:13:57.934Z,72.68
2022-09-28T14:16:27.538Z,72.89
2022-09-28T14:18:56.345Z,72.89
2022-09-28T14:21:49.552Z,73.31
2022-09-28T14:24:45.163Z,73.39
2022-09-28T14:27:32.479Z,73.45
2022-09-28T14:30:11.429Z,73.84
2022-09-28T14:32:39.222Z,74.14
2022-09-28T14:35:07.577Z,74.38
2022-09-28T14:37:53.984Z,74.35
2022-09-28T14:40:49.798Z,74.46
2022-09-28T14:43:57.787Z,74.60
2022-09-28T14:46:24.516Z,74.43
2022-09-28T14:49:01.804Z,74.51
2022-09-28T14:51:31.696Z,74.56
2022-09-28T14:54:05.956Z,74.90
2022-09-28T14:56:57.046Z,74.94
2022-09-28T14:59:35.764Z,75.55
2022-09-28T15:02:11.356Z,75.74
2022-09-28T15:04:43.390Z,76.06
2022-09-28T15:07:21.103Z,76.16
2022-09-28T15:09:50.041Z,76.61
2022-09-28T15:12:18.745Z,77.32
2022-09-28T15:15:04.184Z,77.98
2022-09-28T15:17:39.520Z,78.53
2022-09-28T15:20:24.581Z,78.88
2022-09-28T15:22:53.529Z,79.23
2022-09-28T15:25:21.672Z,79.20
2022-09-28T15:27:54.134Z,79.21
2022-09-28T15:30:23.061Z,79.24
2022-09-28T15:32:50.405Z,79.37
2022-09-28T15:35:23.676Z,79.51
2022-09-28T15:37:52.342Z,79.49
2022-09-28T15:40:23.260Z,79.62
2022-09-28T15:42:49.984Z,79.29
2022-09-28T15:45:24.801Z,79.18
2022-09-28T15:47:57.350Z,79.03
2022-09-28T15:50:30.498Z,79.20
2022-09-28T15:53:01.977Z,79.33
2022-09-28T15:55:32.920Z,79.38
2022-09-28T15:58:15.861Z,79.33
2022-09-28T16:00:43.138Z,79.09
2022-09-28T16:03:09.907Z,79.27
2022-09-28T16:05:45.197Z,79.66
2022-09-28T16:08:21.378Z,79.57
2022-09-28T16:11:09.633Z,79.69
2022-09-28T16:13:38.588Z,80.12
2022-09-28T16:16:05.509Z,80.44
2022-09-28T16:18:33.843Z,80.52
2022-09-28T16:21:24.446Z,80.63
2022-09-28T16:23:52.621Z,80.79
2022-09-28T16:26:29.533Z,81.09
2022-09-28T16:28:56.417Z,81.52
2022-09-28T16:31:28.754Z,81.40
2022-09-28T16:33:58.232Z,81.34
2022-09-28T16:36:30.057Z,81.49
2022-09-28T16:38:57.028Z,81.49
2022-09-28T16:41:26.054Z,81.67
2022-09-28T16:44:01.053Z,81.78
2022-09-28T16:46:34.367Z,82.01
2022-09-28T16:49:03.087Z,82.07
2022-09-28T16:51:29.911Z,82.41
2022-09-28T16:54:40.211Z,82.79
2022-09-28T16:57:08.179Z,83.06
2022-09-28T16:59:34.866Z,83.38
2022-09-28T17:02:01.639Z,83.78
2022-09-28T17:04:28.378Z,83.97
2022-09-28T17:06:55.301Z,84.24
2022-09-28T17:09:22.200Z,84.34
2022-09-28T17:11:56.135Z,84.54
2022-09-28T17:14:23.697Z,83.90
2022-09-28T17:17:13.807Z,81.87
2022-09-28T17:19:40.463Z,80.27
2022-09-28T17:22:08.771Z,79.02
2022-09-28T17:24:35.377Z,77.53
2022-09-28T17:27:03.620Z,76.68
2022-09-28T17:29:30.257Z,76.15
2022-09-28T17:31:56.896Z,75.80
2022-09-28T17:34:24.057Z,75.39
2022-09-28T17:36:51.009Z,75.18
2022-09-28T17:39:18.614Z,75.22
2022-09-28T17:41:45.627Z,75.21
2022-09-28T17:44:16.043Z,75.15
2022-09-28T17:46:49.236Z,75.28
2022-09-28T17:49:16.047Z,75.22
2022-09-28T17:51:42.681Z,75.11
2022-09-28T17:54:09.607Z,75.16
2022-09-28T17:56:36.549Z,75.30
2022-09-28T17:59:06.182Z,75.41
2022-09-28T18:01:35.866Z,75.47
2022-09-28T18:04:03.749Z,75.56
2022-09-28T18:06:33.537Z,75.61
2022-09-28T18:09:00.625Z,75.75
2022-09-28T18:11:28.154Z,75.84
2022-09-28T18:13:54.836Z,75.91
2022-09-28T18:16:22.747Z,76.03
2022-09-28T18:18:49.485Z,75.75
2022-09-28T18:21:16.240Z,75.97
2022-09-28T18:23:42.992Z,76.03
2022-09-28T18:26:13.432Z,75.99
2022-09-28T18:28:40.252Z,75.96
2022-09-28T18:31:12.026Z,75.78
2022-09-28T18:33:38.785Z,75.81
2022-09-28T18:36:06.267Z,75.90
2022-09-28T18:38:36.370Z,76.12
2022-09-28T18:41:15.816Z,76.26
2022-09-28T18:43:43.424Z,76.30
2022-09-28T18:46:10.564Z,76.34
2022-09-28T18:48:37.901Z,76.28
2022-09-28T18:51:07.860Z,76.27
2022-09-28T18:53:37.683Z,76.43
2022-09-28T18:56:08.663Z,76.35
2022-09-28T18:58:36.246Z,76.54
2022-09-28T19:01:29.042Z,76.50
2022-09-28T19:03:58.727Z,76.61
2022-09-28T19:06:25.388Z,76.54
2022-09-28T19:08:53.219Z,76.59
2022-09-28T19:11:19.914Z,76.54
2022-09-28T19:13:46.563Z,76.50
2022-09-28T19:16:18.441Z,76.64
2022-09-28T19:18:45.219Z,76.74
2022-09-28T19:21:13.112Z,76.83
2022-09-28T19:23:39.930Z,76.82
2022-09-28T19:26:08.619Z,76.93
2022-09-28T19:28:35.261Z,77.11
2022-09-28T19:31:03.511Z,77.17
2022-09-28T19:33:30.167Z,77.23
2022-09-28T19:36:04.796Z,77.40
2022-09-28T19:38:32.247Z,77.46
2022-09-28T19:40:59.346Z,77.58
2022-09-28T19:43:26.424Z,77.80
2022-09-28T19:45:54.907Z,77.98
2022-09-28T19:48:28.424Z,78.06
2022-09-28T19:50:58.610Z,78.21
2022-09-28T19:53:30.424Z,78.20
2022-09-28T19:55:57.696Z,78.24
2022-09-28T19:58:25.663Z,78.30
2022-09-28T20:00:52.416Z,78.12
2022-09-28T20:03:19.153Z,78.08
2022-09-28T20:05:46.152Z,78.04
2022-09-28T20:08:14.973Z,78.05
2022-09-28T20:10:54.805Z,78.32
2022-09-28T20:13:21.583Z,78.58
2022-09-28T20:15:48.378Z,78.45
2022-09-28T20:18:15.096Z,78.47
2022-09-28T20:20:42.658Z,78.42
2022-09-28T20:23:09.650Z,78.26
2022-09-28T20:25:36.289Z,78.09
2022-09-28T20:28:02.979Z,78.15
2022-09-28T20:30:29.640Z,77.78
2022-09-28T20:32:56.249Z,77.73
2022-09-28T20:35:32.658Z,77.68
2022-09-28T20:38:08.107Z,77.68
2022-09-28T20:40:38.557Z,77.81
2022-09-28T20:43:06.475Z,77.74
2022-09-28T20:45:37.378Z,77.59
2022-09-28T20:48:06.382Z,77.90
2022-09-28T20:50:33.932Z,78.05
2022-09-28T20:53:01.135Z,77.96
2022-09-28T20:55:28.116Z,77.81
2022-09-28T20:57:54.885Z,77.69
2022-09-28T21:00:21.612Z,77.60
2022-09-28T21:02:51.829Z,77.73
2022-09-28T21:05:18.637Z,77.91
2022-09-28T21:07:45.538Z,78.18
2022-09-28T21:10:12.548Z,78.17
2022-09-28T21:12:40.016Z,78.07
2022-09-28T21:15:07.021Z,77.93
2022-09-28T21:17:33.760Z,77.99
2022-09-28T21:20:00.559Z,77.74
2022-09-28T21:22:28.907Z,77.38
2022-09-28T21:24:55.620Z,77.60
2022-09-28T21:27:22.364Z,77.78
2022-09-28T21:29:49.018Z,77.66
2022-09-28T21:32:15.840Z,77.52
2022-09-28T21:34:42.589Z,77.41
2022-09-28T21:37:52.153Z,77.39
2022-09-28T21:40:20.003Z,77.32
2022-09-28T21:42:47.063Z,77.57
2022-09-28T21:45:14.053Z,77.36
2022-09-28T21:47:41.390Z,77.25
2022-09-28T21:50:08.416Z,76.91
2022-09-28T21:52:35.167Z,76.70
2022-09-28T21:55:03.338Z,76.82
2022-09-28T21:57:29.976Z,77.08
2022-09-28T21:59:56.705Z,77.60
2022-09-28T22:02:23.484Z,77.71
2022-09-28T22:04:50.160Z,78.14
2022-09-28T22:07:16.920Z,78.07
2022-09-28T22:09:43.641Z,77.98
2022-09-28T22:12:10.753Z,77.92
2022-09-28T22:14:37.385Z,77.74
2022-09-28T22:17:04.122Z,77.57
2022-09-28T22:19:30.851Z,77.36
2022-09-28T22:21:57.500Z,77.14
2022-09-28T22:24:24.308Z,77.29
2022-09-28T22:26:51.005Z,76.98
2022-09-28T22:29:17.771Z,76.72
2022-09-28T22:31:44.556Z,76.76
2022-09-28T22:34:11.321Z,76.59
2022-09-28T22:36:40.137Z,76.67
2022-09-28T22:39:06.781Z,76.81
2022-09-28T22:41:33.522Z,76.84
2022-09-28T22:44:00.373Z,76.86
2022-09-28T22:46:28.239Z,76.76
2022-09-28T22:48:56.288Z,76.79
2022-09-28T22:51:23.517Z,76.74
2022-09-28T22:53:50.168Z,76.79
2022-09-28T22:56:18.981Z,76.66
2022-09-28T22:58:46.290Z,76.58
2022-09-28T23:01:23.739Z,76.38
2022-09-28T23:03:51.253Z,76.23
2022-09-28T23:06:20.992Z,76.48
2022-09-28T23:08:51.487Z,76.17
2022-09-28T23:11:18.561Z,76.15
2022-09-28T23:13:52.000Z,76.57
2022-09-28T23:16:18.845Z,76.81
2022-09-28T23:18:46.148Z,76.76
2022-09-28T23:21:15.368Z,76.89
2022-09-28T23:23:45.640Z,76.97
2022-09-28T23:26:14.269Z,76.94
2022-09-28T23:28:40.882Z,76.68
2022-09-28T23:31:12.127Z,76.27
2022-09-28T23:33:38.794Z,76.22
2022-09-28T23:37:55.021Z,76.52
2022-09-28T23:40:21.779Z,76.49
2022-09-28T23:42:48.476Z,76.87
2022-09-28T23:45:15.153Z,77.03
2022-09-28T23:47:41.824Z,76.89
2022-09-28T23:50:08.962Z,76.97
2022-09-28T23:52:35.742Z,77.35
2022-09-28T23:55:02.415Z,77.33
2022-09-28T23:57:29.146Z,77.10
2022-09-28T23:59:55.801Z,77.16
